createdAt,value
2019-03-02T00:00:16.774Z,15.37
2019-03-02T00:02:43.080Z,15.36
2019-03-02T00:05:09.394Z,15.34
2019-03-02T00:07:35.705Z,15.32
2019-03-02T00:10:02.017Z,15.30
2019-03-02T00:12:28.697Z,15.29
2019-03-02T00:14:55.068Z,15.27
2019-03-02T00:17:20.957Z,15.26
2019-03-02T00:19:47.260Z,15.23
2019-03-02T00:22:13.571Z,15.21
2019-03-02T00:24:39.898Z,15.20
2019-03-02T00:27:06.208Z,15.21
2019-03-02T00:29:32.513Z,15.19
2019-03-02T00:31:58.854Z,15.18
2019-03-02T00:34:25.183Z,15.16
2019-03-02T00:36:55.298Z,15.16
2019-03-02T00:39:19.144Z,15.15
2019-03-02T00:41:44.108Z,15.14
2019-03-02T00:44:10.416Z,15.12
2019-03-02T00:46:36.725Z,15.09
2019-03-02T00:49:03.037Z,15.11
2019-03-02T00:51:29.349Z,15.10
2019-03-02T00:53:55.666Z,15.10
2019-03-02T00:56:21.973Z,15.10
2019-03-02T00:58:48.296Z,15.09
2019-03-02T01:01:14.591Z,15.08
2019-03-02T01:03:40.922Z,15.06
2019-03-02T01:06:08.901Z,15.05
2019-03-02T01:08:35.027Z,15.04
2019-03-02T01:10:59.869Z,15.03
2019-03-02T01:13:26.165Z,15.03
2019-03-02T01:15:52.471Z,15.02
2019-03-02T01:18:18.783Z,15.02
2019-03-02T01:20:45.098Z,15.01
2019-03-02T01:23:11.396Z,15.00
2019-03-02T01:25:37.711Z,14.98
2019-03-02T01:28:06.676Z,14.95
2019-03-02T01:30:30.974Z,14.95
2019-03-02T01:32:56.642Z,14.95
2019-03-02T01:35:22.953Z,14.96
2019-03-02T01:37:49.255Z,14.94
2019-03-02T01:40:15.559Z,14.94
2019-03-02T01:42:41.870Z,14.92
2019-03-02T01:45:08.177Z,14.92
2019-03-02T01:47:34.514Z,14.92
2019-03-02T01:50:00.822Z,14.91
2019-03-02T01:52:30.491Z,14.91
2019-03-02T01:54:55.741Z,14.90
2019-03-02T01:57:19.753Z,14.86
2019-03-02T01:59:46.079Z,14.87
2019-03-02T02:02:12.380Z,14.87
2019-03-02T02:04:38.696Z,14.88
2019-03-02T02:07:05.005Z,14.87
2019-03-02T02:09:31.335Z,14.87
2019-03-02T02:11:57.648Z,14.87
2019-03-02T02:14:23.951Z,14.86
2019-03-02T02:16:50.265Z,14.86
2019-03-02T02:19:16.573Z,14.84
2019-03-02T02:21:42.937Z,14.83
2019-03-02T02:24:09.229Z,14.82
2019-03-02T02:26:35.537Z,14.83
2019-03-02T02:29:04.577Z,14.83
2019-03-02T02:31:28.162Z,14.82
2019-03-02T02:33:54.468Z,14.79
2019-03-02T02:36:20.786Z,14.77
2019-03-02T02:38:54.032Z,14.75
2019-03-02T02:41:21.956Z,14.74
2019-03-02T02:43:39.723Z,14.72
2019-03-02T02:46:06.042Z,14.71
2019-03-02T02:48:32.761Z,14.70
2019-03-02T02:50:58.670Z,14.69
2019-03-02T02:53:24.966Z,14.67
2019-03-02T02:55:51.272Z,14.61
2019-03-02T02:58:19.209Z,14.66
2019-03-02T03:00:43.917Z,14.64
2019-03-02T03:03:10.230Z,14.63
2019-03-02T03:05:36.550Z,14.62
2019-03-02T03:08:02.849Z,14.60
2019-03-02T03:10:29.892Z,14.59
2019-03-02T03:12:56.699Z,14.59
2019-03-02T03:15:21.776Z,14.58
2019-03-02T03:17:48.074Z,14.55
2019-03-02T03:20:14.383Z,14.57
2019-03-02T03:22:45.518Z,14.55
2019-03-02T03:25:07.024Z,14.57
2019-03-02T03:27:33.337Z,14.56
2019-03-02T03:29:59.651Z,14.56
2019-03-02T03:32:25.955Z,14.55
2019-03-02T03:34:52.262Z,14.56
2019-03-02T03:37:18.572Z,14.57
2019-03-02T03:39:46.330Z,14.57
2019-03-02T03:42:11.194Z,14.57
2019-03-02T03:44:37.509Z,14.56
2019-03-02T03:47:03.807Z,14.55
2019-03-02T03:49:34.102Z,14.55
2019-03-02T03:51:56.455Z,14.55
2019-03-02T03:54:22.762Z,14.56
2019-03-02T03:56:49.077Z,14.55
2019-03-02T03:59:19.159Z,14.55
2019-03-02T04:01:41.694Z,14.55
2019-03-02T04:04:08.001Z,14.54
2019-03-02T04:06:34.315Z,14.53
2019-03-02T04:09:03.204Z,14.53
2019-03-02T04:11:26.947Z,14.52
2019-03-02T04:13:53.261Z,14.50
2019-03-02T04:16:20.581Z,14.47
2019-03-02T04:18:50.140Z,14.47
2019-03-02T04:21:12.206Z,14.44
2019-03-02T04:23:38.533Z,14.42
2019-03-02T04:26:04.829Z,14.42
2019-03-02T04:28:31.582Z,14.41
2019-03-02T04:30:57.445Z,14.39
2019-03-02T04:33:23.752Z,14.39
2019-03-02T04:35:50.066Z,14.38
2019-03-02T04:38:16.376Z,14.35
2019-03-02T04:40:42.692Z,14.35
2019-03-02T04:43:09.003Z,14.34
2019-03-02T04:45:36.533Z,14.32
2019-03-02T04:48:03.384Z,14.31
2019-03-02T04:50:28.442Z,14.27
2019-03-02T04:52:54.257Z,14.25
2019-03-02T04:55:20.560Z,14.25
2019-03-02T04:57:46.868Z,14.25
2019-03-02T05:00:13.182Z,14.24
2019-03-02T05:02:39.494Z,14.23
2019-03-02T05:05:08.442Z,14.23
2019-03-02T05:07:32.122Z,14.22
2019-03-02T05:09:58.430Z,14.20
2019-03-02T05:12:24.739Z,14.20
2019-03-02T05:14:51.054Z,14.20
2019-03-02T05:17:17.369Z,14.19
2019-03-02T05:19:43.680Z,14.18
2019-03-02T05:22:09.988Z,14.17
2019-03-02T05:24:36.301Z,14.13
2019-03-02T05:27:02.612Z,14.10
2019-03-02T05:29:28.961Z,14.06
2019-03-02T05:31:55.272Z,14.02
2019-03-02T05:34:21.578Z,14.02
2019-03-02T05:36:47.884Z,14.01
2019-03-02T05:39:17.330Z,14.00
2019-03-02T05:41:40.506Z,14.00
2019-03-02T05:44:06.813Z,14.00
2019-03-02T05:46:33.139Z,13.98
2019-03-02T05:48:59.450Z,14.01
2019-03-02T05:51:25.761Z,14.02
2019-03-02T05:53:52.152Z,14.03
2019-03-02T05:56:18.452Z,14.04
2019-03-02T05:58:47.693Z,14.06
2019-03-02T06:01:11.088Z,14.08
2019-03-02T06:03:37.398Z,14.10
2019-03-02T06:06:03.708Z,14.12
2019-03-02T06:08:32.167Z,14.16
2019-03-02T06:10:58.056Z,14.23
2019-03-02T06:13:24.738Z,14.30
2019-03-02T06:15:49.285Z,14.33
2019-03-02T06:18:15.593Z,14.35
2019-03-02T06:20:41.903Z,14.33
2019-03-02T06:23:08.235Z,14.33
2019-03-02T06:25:34.544Z,14.33
2019-03-02T06:28:00.848Z,14.33
2019-03-02T06:30:27.160Z,14.33
2019-03-02T06:32:53.467Z,14.33
2019-03-02T06:35:19.979Z,14.34
2019-03-02T06:37:46.290Z,14.35
2019-03-02T06:40:16.130Z,14.36
2019-03-02T06:42:41.844Z,14.37
2019-03-02T06:45:05.665Z,14.38
2019-03-02T06:47:33.407Z,14.40
2019-03-02T06:49:59.339Z,14.41
2019-03-02T06:52:25.352Z,14.41
2019-03-02T06:54:50.677Z,14.40
2019-03-02T06:57:16.989Z,14.41
2019-03-02T06:59:43.292Z,14.41
2019-03-02T07:02:09.608Z,14.42
2019-03-02T07:04:35.915Z,14.42
2019-03-02T07:07:02.223Z,14.41
2019-03-02T07:09:28.533Z,14.45
2019-03-02T07:11:54.865Z,14.45
2019-03-02T07:14:21.181Z,14.47
2019-03-02T07:16:47.486Z,14.49
2019-03-02T07:19:16.735Z,14.49
2019-03-02T07:21:41.473Z,14.51
2019-03-02T07:24:06.528Z,14.52
2019-03-02T07:26:32.838Z,14.55
2019-03-02T07:28:59.145Z,14.57
2019-03-02T07:31:25.457Z,14.60
2019-03-02T07:33:51.766Z,14.63
2019-03-02T07:36:18.093Z,14.67
2019-03-02T07:38:44.402Z,14.74
2019-03-02T07:41:10.719Z,14.84
2019-03-02T07:43:37.025Z,15.35
2019-03-02T07:46:03.468Z,15.78
2019-03-02T07:48:33.154Z,16.07
2019-03-02T07:50:56.057Z,16.34
2019-03-02T07:53:25.122Z,16.51
2019-03-02T07:55:48.825Z,16.44
2019-03-02T07:58:16.530Z,16.29
2019-03-02T08:00:41.803Z,16.16
2019-03-02T08:03:07.769Z,16.02
2019-03-02T08:05:34.119Z,16.04
2019-03-02T08:08:00.435Z,16.03
2019-03-02T08:10:26.763Z,16.02
2019-03-02T08:12:53.072Z,16.02
2019-03-02T08:15:20.186Z,16.09
2019-03-02T08:17:48.933Z,16.31
2019-03-02T08:20:11.996Z,16.80
2019-03-02T08:22:38.314Z,17.30
2019-03-02T08:25:04.616Z,17.84
2019-03-02T08:27:34.474Z,18.35
2019-03-02T08:29:57.480Z,18.75
2019-03-02T08:32:23.602Z,19.09
2019-03-02T08:34:49.916Z,19.44
2019-03-02T08:37:16.627Z,19.81
2019-03-02T08:39:42.776Z,20.17
2019-03-02T08:42:11.851Z,20.45
2019-03-02T08:44:35.183Z,20.75
2019-03-02T08:47:01.497Z,20.75
2019-03-02T08:49:27.811Z,20.67
2019-03-02T08:51:54.123Z,20.59
2019-03-02T08:54:21.580Z,20.72
2019-03-02T08:56:47.649Z,20.90
2019-03-02T08:59:13.070Z,21.20
2019-03-02T09:01:39.377Z,21.41
2019-03-02T09:04:05.714Z,21.64
2019-03-02T09:06:34.690Z,21.95
2019-03-02T09:08:58.358Z,22.28
2019-03-02T09:11:24.669Z,22.62
2019-03-02T09:13:51.013Z,22.84
2019-03-02T09:16:17.335Z,23.17
2019-03-02T09:18:45.730Z,23.48
2019-03-02T09:21:12.287Z,23.66
2019-03-02T09:23:37.104Z,23.71
2019-03-02T09:26:05.929Z,23.79
2019-03-02T09:28:32.242Z,24.03
2019-03-02T09:30:58.831Z,24.18
2019-03-02T09:33:28.463Z,23.90
2019-03-02T09:35:54.811Z,23.54
2019-03-02T09:38:20.932Z,22.80
2019-03-02T09:40:45.888Z,21.90
2019-03-02T09:43:12.922Z,21.48
2019-03-02T09:45:36.589Z,21.31
2019-03-02T09:48:02.957Z,21.38
2019-03-02T09:50:29.283Z,21.39
2019-03-02T09:52:55.992Z,21.33
2019-03-02T09:55:21.951Z,21.20
2019-03-02T09:57:48.440Z,20.97
2019-03-02T10:00:14.585Z,20.74
2019-03-02T10:02:40.905Z,20.80
2019-03-02T10:05:07.232Z,21.11
2019-03-02T10:07:34.493Z,21.26
2019-03-02T10:09:59.860Z,21.63
2019-03-02T10:12:26.175Z,22.19
2019-03-02T10:14:52.480Z,22.35
2019-03-02T10:17:18.816Z,22.36
2019-03-02T10:19:45.128Z,22.29
2019-03-02T10:22:11.435Z,22.20
2019-03-02T10:24:39.599Z,22.11
2019-03-02T10:27:05.967Z,22.04
2019-03-02T10:29:32.264Z,22.02
2019-03-02T10:31:56.709Z,22.41
2019-03-02T10:34:23.038Z,22.89
2019-03-02T10:36:49.348Z,23.35
2019-03-02T10:39:15.661Z,23.68
2019-03-02T10:41:41.974Z,23.92
2019-03-02T10:44:08.284Z,24.19
2019-03-02T10:46:34.595Z,24.46
2019-03-02T10:49:00.907Z,24.58
2019-03-02T10:51:27.229Z,24.81
2019-03-02T10:53:55.928Z,25.01
2019-03-02T10:56:20.859Z,25.19
2019-03-02T10:58:46.161Z,25.34
2019-03-02T11:01:12.490Z,25.50
2019-03-02T11:03:38.827Z,25.56
2019-03-02T11:06:07.086Z,25.62
2019-03-02T11:08:31.459Z,25.67
2019-03-02T11:10:57.769Z,25.73
2019-03-02T11:13:24.076Z,25.68
2019-03-02T11:15:52.307Z,25.64
2019-03-02T11:18:17.898Z,25.68
2019-03-02T11:20:43.059Z,25.77
2019-03-02T11:23:09.383Z,25.90
2019-03-02T11:25:36.134Z,25.92
2019-03-02T11:28:02.523Z,25.96
2019-03-02T11:30:28.835Z,26.08
2019-03-02T11:32:56.037Z,26.21
2019-03-02T11:35:21.616Z,26.35
2019-03-02T11:37:49.440Z,26.49
2019-03-02T11:40:14.288Z,26.61
2019-03-02T11:42:40.769Z,26.67
2019-03-02T11:45:07.096Z,26.75
2019-03-02T11:47:36.649Z,26.79
2019-03-02T11:50:01.532Z,26.81
2019-03-02T11:52:26.044Z,26.63
2019-03-02T11:54:52.360Z,26.41
2019-03-02T11:57:21.217Z,26.14
2019-03-02T11:59:45.504Z,25.94
2019-03-02T12:02:15.646Z,25.73
2019-03-02T12:04:37.693Z,25.55
2019-03-02T12:07:04.010Z,25.39
2019-03-02T12:09:30.331Z,25.22
2019-03-02T12:11:56.653Z,25.01
2019-03-02T12:14:23.002Z,24.83
2019-03-02T12:16:49.345Z,24.67
2019-03-02T12:19:15.674Z,24.59
2019-03-02T12:21:41.991Z,24.73
2019-03-02T12:24:15.025Z,24.94
2019-03-02T12:26:34.649Z,25.13
2019-03-02T12:29:00.941Z,25.22
2019-03-02T12:31:28.147Z,25.23
2019-03-02T12:33:54.142Z,25.21
2019-03-02T12:36:20.105Z,25.12
2019-03-02T12:38:48.031Z,25.00
2019-03-02T12:41:15.730Z,24.88
2019-03-02T12:43:40.612Z,24.75
2019-03-02T12:46:09.100Z,24.60
2019-03-02T12:48:31.688Z,24.53
2019-03-02T12:50:59.006Z,24.58
2019-03-02T12:53:28.396Z,24.57
2019-03-02T12:55:53.174Z,24.52
2019-03-02T12:58:20.079Z,24.45
2019-03-02T13:00:44.518Z,24.41
2019-03-02T13:03:09.675Z,24.40
2019-03-02T13:05:36.513Z,24.36
2019-03-02T13:08:02.303Z,24.35
2019-03-02T13:10:28.620Z,24.35
2019-03-02T13:12:54.925Z,24.38
2019-03-02T13:15:21.237Z,24.40
2019-03-02T13:17:47.553Z,24.42
2019-03-02T13:20:13.870Z,24.42
2019-03-02T13:22:40.180Z,24.43
2019-03-02T13:25:06.495Z,24.45
2019-03-02T13:27:32.838Z,24.48
2019-03-02T13:30:01.678Z,24.50
2019-03-02T13:32:25.858Z,24.49
2019-03-02T13:34:52.169Z,24.48
2019-03-02T13:37:20.236Z,24.45
2019-03-02T13:39:47.151Z,24.39
2019-03-02T13:42:11.750Z,24.32
2019-03-02T13:44:38.887Z,24.23
2019-03-02T13:47:07.109Z,24.13
2019-03-02T13:49:33.818Z,24.05
2019-03-02T13:51:57.081Z,23.95
2019-03-02T13:54:23.401Z,23.83
2019-03-02T13:56:49.713Z,23.72
2019-03-02T13:59:16.031Z,23.64
2019-03-02T14:01:42.562Z,23.56
2019-03-02T14:04:08.879Z,23.52
2019-03-02T14:06:37.554Z,23.47
2019-03-02T14:09:01.790Z,23.41
2019-03-02T14:11:28.107Z,23.35
2019-03-02T14:13:54.412Z,23.27
2019-03-02T14:16:20.727Z,23.19
2019-03-02T14:18:47.062Z,23.11
2019-03-02T14:21:15.768Z,23.04
2019-03-02T14:23:39.735Z,22.96
2019-03-02T14:26:06.050Z,22.88
2019-03-02T14:28:34.904Z,22.78
2019-03-02T14:31:00.723Z,22.70
2019-03-02T14:33:25.659Z,22.62
2019-03-02T14:35:53.322Z,22.52
2019-03-02T14:38:20.198Z,22.45
2019-03-02T14:40:47.096Z,22.39
2019-03-02T14:43:10.326Z,22.32
2019-03-02T14:45:36.637Z,22.25
2019-03-02T14:48:02.952Z,22.19
2019-03-02T14:50:29.270Z,22.11
2019-03-02T14:52:55.580Z,22.03
2019-03-02T14:55:21.893Z,21.93
2019-03-02T14:57:48.214Z,21.89
2019-03-02T15:00:14.527Z,21.83
2019-03-02T15:02:40.845Z,21.76
2019-03-02T15:05:07.180Z,21.67
2019-03-02T15:07:33.511Z,21.61
2019-03-02T15:09:59.847Z,21.55
2019-03-02T15:12:26.181Z,21.49
2019-03-02T15:14:52.494Z,21.42
2019-03-02T15:17:18.817Z,21.36
2019-03-02T15:19:56.209Z,21.28
2019-03-02T15:22:11.432Z,21.25
2019-03-02T15:24:37.781Z,21.20
2019-03-02T15:27:04.081Z,21.14
2019-03-02T15:29:30.395Z,21.09
2019-03-02T15:31:56.710Z,21.02
2019-03-02T15:34:23.017Z,20.85
2019-03-02T15:36:49.330Z,20.71
2019-03-02T15:39:16.478Z,20.57
2019-03-02T15:41:42.271Z,20.50
2019-03-02T15:44:10.734Z,20.44
2019-03-02T15:46:35.873Z,20.37
2019-03-02T15:49:03.501Z,20.30
2019-03-02T15:51:30.835Z,20.24
2019-03-02T15:53:56.590Z,20.18
2019-03-02T15:56:20.074Z,20.12
2019-03-02T15:58:46.160Z,20.05
2019-03-02T16:01:12.469Z,20.00
2019-03-02T16:03:38.788Z,19.96
2019-03-02T16:06:05.102Z,19.90
2019-03-02T16:08:31.413Z,19.85
2019-03-02T16:10:57.735Z,19.78
2019-03-02T16:13:24.475Z,19.73
2019-03-02T16:15:50.371Z,19.69
2019-03-02T16:18:17.363Z,19.64
2019-03-02T16:20:44.433Z,19.59
2019-03-02T16:23:10.806Z,19.54
2019-03-02T16:25:35.972Z,19.49
2019-03-02T16:28:05.565Z,19.44
2019-03-02T16:30:31.918Z,19.39
2019-03-02T16:32:55.379Z,19.34
2019-03-02T16:35:24.439Z,19.29
2019-03-02T16:37:49.941Z,19.25
2019-03-02T16:40:15.862Z,19.18
2019-03-02T16:42:39.968Z,19.17
2019-03-02T16:45:06.306Z,19.13
2019-03-02T16:47:32.613Z,19.10
2019-03-02T16:49:58.918Z,19.06
2019-03-02T16:52:25.226Z,19.03
2019-03-02T16:54:51.552Z,19.00
2019-03-02T16:57:17.864Z,18.96
2019-03-02T16:59:44.945Z,18.92
2019-03-02T17:02:10.575Z,18.79
2019-03-02T17:04:36.887Z,18.86
2019-03-02T17:07:03.210Z,18.81
2019-03-02T17:09:29.520Z,18.80
2019-03-02T17:11:55.830Z,18.77
2019-03-02T17:14:22.145Z,18.70
2019-03-02T17:16:48.454Z,18.70
2019-03-02T17:19:14.769Z,18.67
2019-03-02T17:21:41.081Z,18.63
2019-03-02T17:24:07.386Z,18.61
2019-03-02T17:26:33.694Z,18.57
2019-03-02T17:29:00.025Z,18.53
2019-03-02T17:31:26.384Z,18.49
2019-03-02T17:33:52.714Z,18.46
2019-03-02T17:36:20.288Z,18.42
2019-03-02T17:38:48.021Z,18.37
2019-03-02T17:41:14.904Z,18.35
2019-03-02T17:43:40.012Z,18.33
2019-03-02T17:46:07.567Z,18.29
2019-03-02T17:48:30.585Z,18.25
2019-03-02T17:50:58.549Z,18.22
2019-03-02T17:53:27.144Z,18.19
2019-03-02T17:55:49.546Z,18.15
2019-03-02T17:58:15.857Z,18.12
2019-03-02T18:00:42.192Z,18.09
2019-03-02T18:03:08.509Z,18.04
2019-03-02T18:05:34.818Z,18.02
2019-03-02T18:08:01.126Z,18.00
2019-03-02T18:10:27.437Z,17.97
2019-03-02T18:12:53.804Z,17.93
2019-03-02T18:15:22.068Z,17.92
2019-03-02T18:17:46.424Z,17.88
2019-03-02T18:20:15.881Z,17.85
2019-03-02T18:22:39.071Z,17.82
2019-03-02T18:25:07.777Z,17.77
2019-03-02T18:27:33.169Z,17.74
2019-03-02T18:29:58.012Z,17.69
2019-03-02T18:32:24.325Z,17.67
2019-03-02T18:34:50.666Z,17.64
2019-03-02T18:37:16.979Z,17.63
2019-03-02T18:39:43.752Z,17.59
2019-03-02T18:42:09.622Z,17.56
2019-03-02T18:44:35.987Z,17.50
2019-03-02T18:47:02.293Z,17.47
2019-03-02T18:49:28.600Z,17.42
2019-03-02T18:51:54.906Z,17.39
2019-03-02T18:54:21.214Z,17.36
2019-03-02T18:56:48.995Z,17.29
2019-03-02T18:59:13.833Z,17.28
2019-03-02T19:01:40.136Z,17.25
2019-03-02T19:04:06.445Z,17.22
2019-03-02T19:06:32.797Z,17.18
2019-03-02T19:08:59.084Z,17.14
2019-03-02T19:11:25.393Z,17.11
2019-03-02T19:13:51.712Z,17.07
2019-03-02T19:16:18.032Z,17.04
2019-03-02T19:18:44.344Z,17.01
2019-03-02T19:21:10.658Z,16.98
2019-03-02T19:23:36.987Z,16.91
2019-03-02T19:26:03.322Z,16.90
2019-03-02T19:28:29.615Z,16.87
2019-03-02T19:30:55.928Z,16.84
2019-03-02T19:33:22.232Z,16.79
2019-03-02T19:35:48.545Z,16.78
2019-03-02T19:38:14.850Z,16.74
2019-03-02T19:40:41.161Z,16.72
2019-03-02T19:43:07.471Z,16.68
2019-03-02T19:45:33.786Z,16.66
2019-03-02T19:48:01.137Z,16.62
2019-03-02T19:50:27.497Z,16.59
2019-03-02T19:52:53.837Z,16.57
2019-03-02T19:55:20.169Z,16.54
2019-03-02T19:57:46.469Z,16.50
2019-03-02T20:00:12.780Z,16.47
2019-03-02T20:02:39.088Z,16.44
2019-03-02T20:05:05.425Z,16.42
2019-03-02T20:07:31.733Z,16.38
2019-03-02T20:09:58.083Z,16.35
2019-03-02T20:12:24.396Z,16.32
2019-03-02T20:14:50.706Z,16.28
2019-03-02T20:17:17.023Z,16.27
2019-03-02T20:19:44.567Z,16.25
2019-03-02T20:22:13.553Z,16.25
2019-03-02T20:24:49.752Z,16.32
2019-03-02T20:27:11.262Z,16.31
2019-03-02T20:29:43.648Z,16.28
2019-03-02T20:32:14.076Z,16.23
2019-03-02T20:34:40.187Z,16.17
2019-03-02T20:37:06.498Z,16.12
2019-03-02T20:39:32.817Z,16.08
2019-03-02T20:41:59.183Z,16.04
2019-03-02T20:44:25.518Z,16.01
2019-03-02T20:46:51.925Z,15.99
2019-03-02T20:49:18.238Z,16.00
2019-03-02T20:51:44.639Z,15.97
2019-03-02T20:54:10.957Z,15.93
2019-03-02T20:56:37.265Z,15.91
2019-03-02T20:59:03.578Z,15.88
2019-03-02T21:01:30.480Z,15.87
2019-03-02T21:03:56.786Z,15.85
2019-03-02T21:06:23.133Z,15.83
2019-03-02T21:08:49.435Z,15.88
2019-03-02T21:11:16.879Z,15.90
2019-03-02T21:13:43.201Z,15.87
2019-03-02T21:16:09.511Z,15.84
2019-03-02T21:18:35.819Z,15.80
2019-03-02T21:21:02.142Z,15.76
2019-03-02T21:23:28.467Z,15.72
2019-03-02T21:25:54.772Z,15.71
2019-03-02T21:28:21.083Z,15.69
2019-03-02T21:30:47.397Z,15.67
2019-03-02T21:33:15.060Z,15.63
2019-03-02T21:35:40.043Z,15.60
2019-03-02T21:38:06.351Z,15.59
2019-03-02T21:40:32.696Z,15.57
2019-03-02T21:42:58.997Z,15.53
2019-03-02T21:45:25.306Z,15.50
2019-03-02T21:47:51.624Z,15.49
2019-03-02T21:50:17.935Z,15.47
2019-03-02T21:52:44.249Z,15.44
2019-03-02T21:55:10.560Z,15.40
2019-03-02T21:57:36.864Z,15.38
2019-03-02T22:00:03.194Z,15.34
2019-03-02T22:02:29.504Z,15.31
2019-03-02T22:04:55.816Z,15.32
2019-03-02T22:07:22.126Z,15.30
2019-03-02T22:09:48.456Z,15.26
2019-03-02T22:12:14.767Z,15.24
2019-03-02T22:14:41.071Z,15.20
2019-03-02T22:17:07.387Z,15.19
2019-03-02T22:19:33.703Z,15.14
2019-03-02T22:22:00.013Z,15.14
2019-03-02T22:24:26.331Z,15.13
2019-03-02T22:26:52.645Z,15.13
2019-03-02T22:29:18.948Z,15.12
2019-03-02T22:31:45.265Z,15.08
2019-03-02T22:34:11.576Z,15.07
2019-03-02T22:36:37.898Z,15.05
2019-03-02T22:39:04.209Z,15.02
2019-03-02T22:41:30.519Z,15.01
2019-03-02T22:43:56.859Z,14.99
2019-03-02T22:46:23.128Z,14.95
2019-03-02T22:48:49.438Z,14.94
2019-03-02T22:51:15.748Z,14.92
2019-03-02T22:53:42.061Z,14.91
2019-03-02T22:56:08.369Z,14.87
2019-03-02T22:58:34.724Z,14.84
2019-03-02T23:01:01.031Z,14.82
2019-03-02T23:03:27.343Z,14.78
2019-03-02T23:05:53.674Z,14.74
2019-03-02T23:08:19.973Z,14.70
2019-03-02T23:10:46.279Z,14.68
2019-03-02T23:13:12.585Z,14.65
2019-03-02T23:15:38.899Z,14.63
2019-03-02T23:18:05.208Z,14.60
2019-03-02T23:20:31.518Z,14.57
2019-03-02T23:22:57.829Z,14.55
2019-03-02T23:25:24.137Z,14.52
2019-03-02T23:27:50.446Z,14.49
2019-03-02T23:30:16.753Z,14.48
2019-03-02T23:32:43.067Z,14.45
2019-03-02T23:35:09.375Z,14.42
2019-03-02T23:37:35.707Z,14.39
2019-03-02T23:40:02.022Z,14.38
2019-03-02T23:42:28.332Z,14.36
2019-03-02T23:44:54.641Z,14.33
2019-03-02T23:47:20.957Z,14.30
2019-03-02T23:49:47.265Z,14.27
2019-03-02T23:52:13.577Z,14.24
2019-03-02T23:54:39.892Z,14.21
2019-03-02T23:57:06.239Z,14.19
2019-03-02T23:59:32.560Z,14.15
